sensor_id;sensor_type;location;lat;lon;timestamp;temperature;humidity
12602;DHT22;30282;16.436;99.370;2023-11-21T00:00:17;20.80;99.90
12602;DHT22;30282;16.436;99.370;2023-11-21T00:02:46;20.80;99.90
12602;DHT22;30282;16.436;99.370;2023-11-21T00:05:16;20.90;99.90
12602;DHT22;30282;16.436;99.370;2023-11-21T00:07:47;21.00;99.90
12602;DHT22;30282;16.436;99.370;2023-11-21T00:10:18;21.00;99.90
12602;DHT22;30282;16.436;99.370;2023-11-21T00:12:47;21.10;99.90
12602;DHT22;30282;16.436;99.370;2023-11-21T00:15:17;21.20;99.90
12602;DHT22;30282;16.436;99.370;2023-11-21T00:17:46;21.20;99.90
12602;DHT22;30282;16.436;99.370;2023-11-21T00:20:16;21.40;99.90
12602;DHT22;30282;16.436;99.370;2023-11-21T00:22:48;21.40;99.90
12602;DHT22;30282;16.436;99.370;2023-11-21T00:25:18;21.50;99.90
12602;DHT22;30282;16.436;99.370;2023-11-21T00:27:47;21.60;99.90
12602;DHT22;30282;16.436;99.370;2023-11-21T00:30:17;21.70;99.90
12602;DHT22;30282;16.436;99.370;2023-11-21T00:32:47;21.80;99.90
12602;DHT22;30282;16.436;99.370;2023-11-21T00:35:16;22.00;99.90
12602;DHT22;30282;16.436;99.370;2023-11-21T00:37:50;22.10;99.90
12602;DHT22;30282;16.436;99.370;2023-11-21T00:40:19;22.20;99.90
12602;DHT22;30282;16.436;99.370;2023-11-21T00:42:49;22.40;99.90
12602;DHT22;30282;16.436;99.370;2023-11-21T00:45:19;22.50;99.90
12602;DHT22;30282;16.436;99.370;2023-11-21T00:47:48;22.60;99.90
12602;DHT22;30282;16.436;99.370;2023-11-21T00:50:18;22.80;99.90
12602;DHT22;30282;16.436;99.370;2023-11-21T00:52:47;22.90;99.90
12602;DHT22;30282;16.436;99.370;2023-11-21T00:55:20;23.00;99.90
12602;DHT22;30282;16.436;99.370;2023-11-21T00:57:49;23.10;99.90
12602;DHT22;30282;16.436;99.370;2023-11-21T01:00:19;23.20;99.90
12602;DHT22;30282;16.436;99.370;2023-11-21T01:02:49;23.30;99.90
12602;DHT22;30282;16.436;99.370;2023-11-21T01:05:18;23.40;99.90
12602;DHT22;30282;16.436;99.370;2023-11-21T01:07:50;23.50;99.90
12602;DHT22;30282;16.436;99.370;2023-11-21T01:10:21;23.70;99.90
12602;DHT22;30282;16.436;99.370;2023-11-21T01:12:52;23.80;99.90
12602;DHT22;30282;16.436;99.370;2023-11-21T01:15:21;24.00;99.90
12602;DHT22;30282;16.436;99.370;2023-11-21T01:17:53;24.10;99.90
12602;DHT22;30282;16.436;99.370;2023-11-21T01:20:22;24.20;99.90
12602;DHT22;30282;16.436;99.370;2023-11-21T01:22:51;24.40;99.90
12602;DHT22;30282;16.436;99.370;2023-11-21T01:25:23;24.40;99.90
12602;DHT22;30282;16.436;99.370;2023-11-21T01:27:52;24.50;99.90
12602;DHT22;30282;16.436;99.370;2023-11-21T01:30:22;24.50;99.90
12602;DHT22;30282;16.436;99.370;2023-11-21T01:32:52;24.60;99.90
12602;DHT22;30282;16.436;99.370;2023-11-21T01:35:22;24.70;99.90
12602;DHT22;30282;16.436;99.370;2023-11-21T01:37:51;24.90;99.90
12602;DHT22;30282;16.436;99.370;2023-11-21T01:40:23;25.00;99.90
12602;DHT22;30282;16.436;99.370;2023-11-21T01:42:54;25.10;99.90
12602;DHT22;30282;16.436;99.370;2023-11-21T01:45:26;25.30;99.90
12602;DHT22;30282;16.436;99.370;2023-11-21T01:47:56;25.40;99.90
12602;DHT22;30282;16.436;99.370;2023-11-21T01:50:26;25.50;99.90
12602;DHT22;30282;16.436;99.370;2023-11-21T01:52:56;25.60;99.90
12602;DHT22;30282;16.436;99.370;2023-11-21T01:55:28;25.60;99.90
12602;DHT22;30282;16.436;99.370;2023-11-21T01:57:59;25.70;99.90
12602;DHT22;30282;16.436;99.370;2023-11-21T02:00:29;25.90;99.90
12602;DHT22;30282;16.436;99.370;2023-11-21T02:03:00;26.00;99.90
12602;DHT22;30282;16.436;99.370;2023-11-21T02:05:29;26.10;99.90
12602;DHT22;30282;16.436;99.370;2023-11-21T02:07:59;26.20;99.90
12602;DHT22;30282;16.436;99.370;2023-11-21T02:10:31;26.30;99.90
12602;DHT22;30282;16.436;99.370;2023-11-21T02:13:02;26.40;99.90
12602;DHT22;30282;16.436;99.370;2023-11-21T02:15:33;26.60;99.90
12602;DHT22;30282;16.436;99.370;2023-11-21T02:18:02;26.70;99.90
12602;DHT22;30282;16.436;99.370;2023-11-21T02:20:33;26.90;99.90
12602;DHT22;30282;16.436;99.370;2023-11-21T02:23:07;27.00;99.90
12602;DHT22;30282;16.436;99.370;2023-11-21T02:25:37;27.10;99.90
12602;DHT22;30282;16.436;99.370;2023-11-21T02:28:06;27.20;99.90
12602;DHT22;30282;16.436;99.370;2023-11-21T02:30:36;27.40;99.90
12602;DHT22;30282;16.436;99.370;2023-11-21T02:33:05;27.60;99.90
12602;DHT22;30282;16.436;99.370;2023-11-21T02:35:35;27.80;99.90
12602;DHT22;30282;16.436;99.370;2023-11-21T02:38:06;28.00;99.90
12602;DHT22;30282;16.436;99.370;2023-11-21T02:40:36;28.10;99.90
12602;DHT22;30282;16.436;99.370;2023-11-21T02:43:05;28.10;99.90
12602;DHT22;30282;16.436;99.370;2023-11-21T02:45:35;27.90;99.90
12602;DHT22;30282;16.436;99.370;2023-11-21T02:48:05;27.90;99.90
12602;DHT22;30282;16.436;99.370;2023-11-21T02:50:34;28.20;99.90
12602;DHT22;30282;16.436;99.370;2023-11-21T02:53:04;28.50;99.90
12602;DHT22;30282;16.436;99.370;2023-11-21T02:55:36;28.90;99.90
12602;DHT22;30282;16.436;99.370;2023-11-21T02:58:05;29.10;99.90
12602;DHT22;30282;16.436;99.370;2023-11-21T03:00:35;29.30;99.90
12602;DHT22;30282;16.436;99.370;2023-11-21T03:03:07;29.60;99.90
12602;DHT22;30282;16.436;99.370;2023-11-21T03:05:36;29.40;99.90
12602;DHT22;30282;16.436;99.370;2023-11-21T03:08:06;29.40;99.90
12602;DHT22;30282;16.436;99.370;2023-11-21T03:10:37;29.70;99.90
12602;DHT22;30282;16.436;99.370;2023-11-21T03:13:06;29.90;99.90
12602;DHT22;30282;16.436;99.370;2023-11-21T03:15:36;30.10;99.90
12602;DHT22;30282;16.436;99.370;2023-11-21T03:18:05;30.10;99.90
12602;DHT22;30282;16.436;99.370;2023-11-21T03:20:35;30.20;99.90
12602;DHT22;30282;16.436;99.370;2023-11-21T03:23:28;30.40;99.90
12602;DHT22;30282;16.436;99.370;2023-11-21T03:25:59;30.50;99.90
12602;DHT22;30282;16.436;99.370;2023-11-21T03:28:28;30.60;99.90
12602;DHT22;30282;16.436;99.370;2023-11-21T03:30:57;30.80;99.90
12602;DHT22;30282;16.436;99.370;2023-11-21T03:33:26;30.90;99.90
12602;DHT22;30282;16.436;99.370;2023-11-21T03:35:55;30.90;99.90
12602;DHT22;30282;16.436;99.370;2023-11-21T03:38:24;30.80;99.90
12602;DHT22;30282;16.436;99.370;2023-11-21T03:40:53;30.90;99.90
12602;DHT22;30282;16.436;99.370;2023-11-21T03:43:24;30.70;99.90
12602;DHT22;30282;16.436;99.370;2023-11-21T03:45:53;30.80;99.90
12602;DHT22;30282;16.436;99.370;2023-11-21T03:48:22;30.90;99.90
12602;DHT22;30282;16.436;99.370;2023-11-21T03:50:51;31.00;99.90
12602;DHT22;30282;16.436;99.370;2023-11-21T03:53:20;31.30;99.90
12602;DHT22;30282;16.436;99.370;2023-11-21T03:55:49;31.40;99.90
12602;DHT22;30282;16.436;99.370;2023-11-21T03:58:18;31.50;99.90
12602;DHT22;30282;16.436;99.370;2023-11-21T04:00:49;31.70;99.90
12602;DHT22;30282;16.436;99.370;2023-11-21T04:03:18;31.90;99.90
12602;DHT22;30282;16.436;99.370;2023-11-21T04:05:47;32.00;99.90
12602;DHT22;30282;16.436;99.370;2023-11-21T04:08:16;31.70;99.90
12602;DHT22;30282;16.436;99.370;2023-11-21T04:10:45;31.50;99.90
12602;DHT22;30282;16.436;99.370;2023-11-21T04:13:14;31.50;99.90
12602;DHT22;30282;16.436;99.370;2023-11-21T04:15:43;31.80;99.90
12602;DHT22;30282;16.436;99.370;2023-11-21T04:18:14;32.00;99.90
12602;DHT22;30282;16.436;99.370;2023-11-21T04:20:44;32.00;99.90
12602;DHT22;30282;16.436;99.370;2023-11-21T04:23:13;32.10;99.90
12602;DHT22;30282;16.436;99.370;2023-11-21T04:25:42;32.10;99.90
12602;DHT22;30282;16.436;99.370;2023-11-21T04:28:12;32.10;99.90
12602;DHT22;30282;16.436;99.370;2023-11-21T04:30:44;32.10;99.90
12602;DHT22;30282;16.436;99.370;2023-11-21T04:33:14;32.20;99.90
12602;DHT22;30282;16.436;99.370;2023-11-21T04:35:43;32.40;99.90
12602;DHT22;30282;16.436;99.370;2023-11-21T04:38:13;32.60;99.90
12602;DHT22;30282;16.436;99.370;2023-11-21T04:40:42;32.50;99.90
12602;DHT22;30282;16.436;99.370;2023-11-21T04:43:11;32.50;99.90
12602;DHT22;30282;16.436;99.370;2023-11-21T04:45:40;32.70;99.90
12602;DHT22;30282;16.436;99.370;2023-11-21T04:48:09;32.60;99.90
12602;DHT22;30282;16.436;99.370;2023-11-21T04:50:39;32.60;99.90
12602;DHT22;30282;16.436;99.370;2023-11-21T04:53:08;32.70;99.90
12602;DHT22;30282;16.436;99.370;2023-11-21T04:55:40;32.40;99.90
12602;DHT22;30282;16.436;99.370;2023-11-21T04:58:09;32.70;99.90
12602;DHT22;30282;16.436;99.370;2023-11-21T05:00:39;32.60;99.90
12602;DHT22;30282;16.436;99.370;2023-11-21T05:03:08;32.60;99.90
12602;DHT22;30282;16.436;99.370;2023-11-21T05:05:39;32.20;99.90
12602;DHT22;30282;16.436;99.370;2023-11-21T05:08:08;32.20;99.90
12602;DHT22;30282;16.436;99.370;2023-11-21T05:10:37;32.60;99.90
12602;DHT22;30282;16.436;99.370;2023-11-21T05:13:07;33.10;99.90
12602;DHT22;30282;16.436;99.370;2023-11-21T05:15:37;33.00;99.90
12602;DHT22;30282;16.436;99.370;2023-11-21T05:18:07;32.90;99.90
12602;DHT22;30282;16.436;99.370;2023-11-21T05:20:38;32.90;99.90
12602;DHT22;30282;16.436;99.370;2023-11-21T05:23:07;33.00;99.90
12602;DHT22;30282;16.436;99.370;2023-11-21T05:25:36;33.00;99.90
12602;DHT22;30282;16.436;99.370;2023-11-21T05:28:08;32.90;99.90
12602;DHT22;30282;16.436;99.370;2023-11-21T05:30:37;33.10;99.90
12602;DHT22;30282;16.436;99.370;2023-11-21T05:33:09;33.10;99.90
12602;DHT22;30282;16.436;99.370;2023-11-21T05:35:43;32.70;99.90
12602;DHT22;30282;16.436;99.370;2023-11-21T05:38:12;32.50;99.90
12602;DHT22;30282;16.436;99.370;2023-11-21T05:40:41;32.70;99.90
12602;DHT22;30282;16.436;99.370;2023-11-21T05:43:10;33.10;99.90
12602;DHT22;30282;16.436;99.370;2023-11-21T05:45:39;33.30;99.90
12602;DHT22;30282;16.436;99.370;2023-11-21T05:48:09;33.40;99.90
12602;DHT22;30282;16.436;99.370;2023-11-21T05:50:39;33.20;99.90
12602;DHT22;30282;16.436;99.370;2023-11-21T05:53:08;32.90;99.90
12602;DHT22;30282;16.436;99.370;2023-11-21T05:55:38;32.70;99.90
12602;DHT22;30282;16.436;99.370;2023-11-21T05:58:07;32.90;99.90
12602;DHT22;30282;16.436;99.370;2023-11-21T06:00:36;32.70;99.90
12602;DHT22;30282;16.436;99.370;2023-11-21T06:03:05;32.60;99.90
12602;DHT22;30282;16.436;99.370;2023-11-21T06:05:34;32.80;99.90
12602;DHT22;30282;16.436;99.370;2023-11-21T06:08:06;32.80;99.90
12602;DHT22;30282;16.436;99.370;2023-11-21T06:10:35;32.90;99.90
12602;DHT22;30282;16.436;99.370;2023-11-21T06:13:04;33.00;99.90
12602;DHT22;30282;16.436;99.370;2023-11-21T06:15:34;32.90;99.90
12602;DHT22;30282;16.436;99.370;2023-11-21T06:18:03;32.70;99.90
12602;DHT22;30282;16.436;99.370;2023-11-21T06:20:36;32.50;99.90
12602;DHT22;30282;16.436;99.370;2023-11-21T06:23:07;32.70;99.90
12602;DHT22;30282;16.436;99.370;2023-11-21T06:25:36;32.90;99.90
12602;DHT22;30282;16.436;99.370;2023-11-21T06:28:06;33.00;99.90
12602;DHT22;30282;16.436;99.370;2023-11-21T06:30:35;32.90;99.90
12602;DHT22;30282;16.436;99.370;2023-11-21T06:33:04;32.60;99.90
12602;DHT22;30282;16.436;99.370;2023-11-21T06:35:34;32.60;99.90
12602;DHT22;30282;16.436;99.370;2023-11-21T06:38:03;32.50;99.90
12602;DHT22;30282;16.436;99.370;2023-11-21T06:40:34;32.50;99.90
12602;DHT22;30282;16.436;99.370;2023-11-21T06:43:03;32.50;99.90
12602;DHT22;30282;16.436;99.370;2023-11-21T06:45:33;32.50;99.90
12602;DHT22;30282;16.436;99.370;2023-11-21T06:48:02;32.50;99.90
12602;DHT22;30282;16.436;99.370;2023-11-21T06:50:31;32.40;99.90
12602;DHT22;30282;16.436;99.370;2023-11-21T06:53:00;32.20;99.90
12602;DHT22;30282;16.436;99.370;2023-11-21T06:55:32;32.10;99.90
12602;DHT22;30282;16.436;99.370;2023-11-21T06:58:02;32.10;99.90
12602;DHT22;30282;16.436;99.370;2023-11-21T07:00:32;32.30;99.90
12602;DHT22;30282;16.436;99.370;2023-11-21T07:03:01;32.30;99.90
12602;DHT22;30282;16.436;99.370;2023-11-21T07:05:29;32.10;99.90
12602;DHT22;30282;16.436;99.370;2023-11-21T07:07:58;32.10;99.90
12602;DHT22;30282;16.436;99.370;2023-11-21T07:10:32;31.90;99.90
12602;DHT22;30282;16.436;99.370;2023-11-21T07:13:04;32.00;99.90
12602;DHT22;30282;16.436;99.370;2023-11-21T07:15:33;32.00;99.90
12602;DHT22;30282;16.436;99.370;2023-11-21T07:18:02;31.80;99.90
12602;DHT22;30282;16.436;99.370;2023-11-21T07:20:34;31.90;99.90
12602;DHT22;30282;16.436;99.370;2023-11-21T07:23:03;31.80;99.90
12602;DHT22;30282;16.436;99.370;2023-11-21T07:25:34;31.80;99.90
12602;DHT22;30282;16.436;99.370;2023-11-21T07:28:03;31.80;99.90
12602;DHT22;30282;16.436;99.370;2023-11-21T07:30:32;31.70;99.90
12602;DHT22;30282;16.436;99.370;2023-11-21T07:33:04;31.50;99.90
12602;DHT22;30282;16.436;99.370;2023-11-21T07:35:34;31.50;99.90
12602;DHT22;30282;16.436;99.370;2023-11-21T07:38:03;31.50;99.90
12602;DHT22;30282;16.436;99.370;2023-11-21T07:40:34;31.50;99.90
12602;DHT22;30282;16.436;99.370;2023-11-21T07:43:03;31.40;99.90
12602;DHT22;30282;16.436;99.370;2023-11-21T07:45:32;31.30;99.90
12602;DHT22;30282;16.436;99.370;2023-11-21T07:48:01;31.20;99.90
12602;DHT22;30282;16.436;99.370;2023-11-21T07:50:31;31.20;99.90
12602;DHT22;30282;16.436;99.370;2023-11-21T07:53:00;31.30;99.90
12602;DHT22;30282;16.436;99.370;2023-11-21T07:55:36;31.20;99.90
12602;DHT22;30282;16.436;99.370;2023-11-21T07:58:06;31.20;99.90
12602;DHT22;30282;16.436;99.370;2023-11-21T08:00:34;31.40;99.90
12602;DHT22;30282;16.436;99.370;2023-11-21T08:03:06;31.40;99.90
12602;DHT22;30282;16.436;99.370;2023-11-21T08:05:35;31.50;99.90
12602;DHT22;30282;16.436;99.370;2023-11-21T08:08:04;31.60;99.90
12602;DHT22;30282;16.436;99.370;2023-11-21T08:10:35;31.70;99.90
12602;DHT22;30282;16.436;99.370;2023-11-21T08:13:04;31.40;99.90
12602;DHT22;30282;16.436;99.370;2023-11-21T08:15:35;31.40;99.90
12602;DHT22;30282;16.436;99.370;2023-11-21T08:18:05;31.40;99.90
12602;DHT22;30282;16.436;99.370;2023-11-21T08:20:34;31.40;99.90
12602;DHT22;30282;16.436;99.370;2023-11-21T08:23:05;31.30;99.90
12602;DHT22;30282;16.436;99.370;2023-11-21T08:25:36;31.20;99.90
12602;DHT22;30282;16.436;99.370;2023-11-21T08:28:05;31.20;99.90
12602;DHT22;30282;16.436;99.370;2023-11-21T08:30:34;31.30;99.90
12602;DHT22;30282;16.436;99.370;2023-11-21T08:33:03;31.40;99.90
12602;DHT22;30282;16.436;99.370;2023-11-21T08:35:32;31.60;99.90
12602;DHT22;30282;16.436;99.370;2023-11-21T08:38:04;31.70;99.90
12602;DHT22;30282;16.436;99.370;2023-11-21T08:40:35;31.70;99.90
12602;DHT22;30282;16.436;99.370;2023-11-21T08:43:06;31.70;99.90
12602;DHT22;30282;16.436;99.370;2023-11-21T08:45:35;31.80;99.90
12602;DHT22;30282;16.436;99.370;2023-11-21T08:48:05;31.70;99.90
12602;DHT22;30282;16.436;99.370;2023-11-21T08:50:36;31.60;99.90
12602;DHT22;30282;16.436;99.370;2023-11-21T08:53:05;31.60;99.90
12602;DHT22;30282;16.436;99.370;2023-11-21T08:55:36;31.60;99.90
12602;DHT22;30282;16.436;99.370;2023-11-21T08:58:05;31.60;99.90
12602;DHT22;30282;16.436;99.370;2023-11-21T09:00:34;31.60;99.90
12602;DHT22;30282;16.436;99.370;2023-11-21T09:03:03;31.60;99.90
12602;DHT22;30282;16.436;99.370;2023-11-21T09:05:37;31.70;99.90
12602;DHT22;30282;16.436;99.370;2023-11-21T09:08:07;31.60;99.90
12602;DHT22;30282;16.436;99.370;2023-11-21T09:10:38;31.40;99.90
12602;DHT22;30282;16.436;99.370;2023-11-21T09:13:07;31.50;99.90
12602;DHT22;30282;16.436;99.370;2023-11-21T09:15:37;31.30;99.90
12602;DHT22;30282;16.436;99.370;2023-11-21T09:18:07;31.10;99.90
12602;DHT22;30282;16.436;99.370;2023-11-21T09:20:35;31.10;99.90
12602;DHT22;30282;16.436;99.370;2023-11-21T09:23:04;31.00;99.90
12602;DHT22;30282;16.436;99.370;2023-11-21T09:25:33;31.00;99.90
12602;DHT22;30282;16.436;99.370;2023-11-21T09:28:05;30.90;99.90
12602;DHT22;30282;16.436;99.370;2023-11-21T09:30:36;30.90;99.90
12602;DHT22;30282;16.436;99.370;2023-11-21T09:33:05;31.00;99.90
12602;DHT22;30282;16.436;99.370;2023-11-21T09:35:37;30.90;99.90
12602;DHT22;30282;16.436;99.370;2023-11-21T09:38:06;30.80;99.90
12602;DHT22;30282;16.436;99.370;2023-11-21T09:40:37;30.80;99.90
12602;DHT22;30282;16.436;99.370;2023-11-21T09:43:12;30.60;99.90
12602;DHT22;30282;16.436;99.370;2023-11-21T09:45:45;30.40;99.90
12602;DHT22;30282;16.436;99.370;2023-11-21T09:48:17;30.30;99.90
12602;DHT22;30282;16.436;99.370;2023-11-21T09:50:48;30.30;99.90
12602;DHT22;30282;16.436;99.370;2023-11-21T09:53:19;30.20;99.90
12602;DHT22;30282;16.436;99.370;2023-11-21T09:55:49;30.10;99.90
12602;DHT22;30282;16.436;99.370;2023-11-21T09:58:21;30.10;99.90
12602;DHT22;30282;16.436;99.370;2023-11-21T10:00:54;30.00;99.90
12602;DHT22;30282;16.436;99.370;2023-11-21T10:03:24;29.90;99.90
12602;DHT22;30282;16.436;99.370;2023-11-21T10:05:54;29.90;99.90
12602;DHT22;30282;16.436;99.370;2023-11-21T10:08:27;29.80;99.90
12602;DHT22;30282;16.436;99.370;2023-11-21T10:10:58;29.60;99.90
12602;DHT22;30282;16.436;99.370;2023-11-21T10:13:31;29.50;99.90
12602;DHT22;30282;16.436;99.370;2023-11-21T10:16:01;29.50;99.90
12602;DHT22;30282;16.436;99.370;2023-11-21T10:18:33;29.50;99.90
12602;DHT22;30282;16.436;99.370;2023-11-21T10:21:04;29.40;99.90
12602;DHT22;30282;16.436;99.370;2023-11-21T10:23:34;29.30;99.90
12602;DHT22;30282;16.436;99.370;2023-11-21T10:26:05;29.10;99.90
12602;DHT22;30282;16.436;99.370;2023-11-21T10:28:38;29.00;99.90
12602;DHT22;30282;16.436;99.370;2023-11-21T10:31:07;28.80;99.90
12602;DHT22;30282;16.436;99.370;2023-11-21T10:33:37;28.80;99.90
12602;DHT22;30282;16.436;99.370;2023-11-21T10:36:06;28.90;99.90
12602;DHT22;30282;16.436;99.370;2023-11-21T10:38:43;28.90;99.90
12602;DHT22;30282;16.436;99.370;2023-11-21T10:41:18;28.80;99.90
12602;DHT22;30282;16.436;99.370;2023-11-21T10:43:49;28.80;99.90
12602;DHT22;30282;16.436;99.370;2023-11-21T10:46:22;28.80;99.90
12602;DHT22;30282;16.436;99.370;2023-11-21T10:48:56;28.60;99.90
12602;DHT22;30282;16.436;99.370;2023-11-21T10:51:26;28.40;99.90
12602;DHT22;30282;16.436;99.370;2023-11-21T10:53:55;28.20;99.90
12602;DHT22;30282;16.436;99.370;2023-11-21T10:56:26;28.00;99.90
12602;DHT22;30282;16.436;99.370;2023-11-21T10:58:58;28.10;99.90
12602;DHT22;30282;16.436;99.370;2023-11-21T11:01:29;28.00;99.90
12602;DHT22;30282;16.436;99.370;2023-11-21T11:03:59;27.80;99.90
12602;DHT22;30282;16.436;99.370;2023-11-21T11:06:29;27.70;99.90
12602;DHT22;30282;16.436;99.370;2023-11-21T11:09:00;27.70;99.90
12602;DHT22;30282;16.436;99.370;2023-11-21T11:11:31;27.60;99.90
12602;DHT22;30282;16.436;99.370;2023-11-21T11:14:02;27.40;99.90
12602;DHT22;30282;16.436;99.370;2023-11-21T11:16:31;27.30;99.90
12602;DHT22;30282;16.436;99.370;2023-11-21T11:19:01;27.30;99.90
12602;DHT22;30282;16.436;99.370;2023-11-21T11:21:39;27.30;99.90
12602;DHT22;30282;16.436;99.370;2023-11-21T11:24:36;27.30;99.90
12602;DHT22;30282;16.436;99.370;2023-11-21T11:27:20;27.30;99.90
12602;DHT22;30282;16.436;99.370;2023-11-21T11:29:59;27.40;99.90
12602;DHT22;30282;16.436;99.370;2023-11-21T11:32:40;27.50;99.90
12602;DHT22;30282;16.436;99.370;2023-11-21T11:35:17;27.30;99.90
12602;DHT22;30282;16.436;99.370;2023-11-21T11:37:48;27.10;99.90
12602;DHT22;30282;16.436;99.370;2023-11-21T11:40:17;27.00;99.90
12602;DHT22;30282;16.436;99.370;2023-11-21T11:42:57;27.00;99.90
12602;DHT22;30282;16.436;99.370;2023-11-21T11:45:33;26.90;99.90
12602;DHT22;30282;16.436;99.370;2023-11-21T11:48:08;26.90;99.90
12602;DHT22;30282;16.436;99.370;2023-11-21T11:53:26;26.70;99.90
12602;DHT22;30282;16.436;99.370;2023-11-21T11:56:22;26.70;99.90
12602;DHT22;30282;16.436;99.370;2023-11-21T11:58:53;26.80;99.90
12602;DHT22;30282;16.436;99.370;2023-11-21T12:01:25;26.70;99.90
12602;DHT22;30282;16.436;99.370;2023-11-21T12:04:25;26.80;99.90
12602;DHT22;30282;16.436;99.370;2023-11-21T12:07:03;26.70;99.90
12602;DHT22;30282;16.436;99.370;2023-11-21T12:09:33;26.70;99.90
12602;DHT22;30282;16.436;99.370;2023-11-21T12:12:03;26.70;99.90
12602;DHT22;30282;16.436;99.370;2023-11-21T12:14:34;26.60;99.90
12602;DHT22;30282;16.436;99.370;2023-11-21T12:17:07;26.50;99.90
12602;DHT22;30282;16.436;99.370;2023-11-21T12:19:36;26.40;99.90
12602;DHT22;30282;16.436;99.370;2023-11-21T12:22:06;26.40;99.90
12602;DHT22;30282;16.436;99.370;2023-11-21T12:24:35;26.40;99.90
12602;DHT22;30282;16.436;99.370;2023-11-21T12:27:04;26.30;99.90
12602;DHT22;30282;16.436;99.370;2023-11-21T12:29:34;26.30;99.90
12602;DHT22;30282;16.436;99.370;2023-11-21T12:32:06;26.30;99.90
12602;DHT22;30282;16.436;99.370;2023-11-21T12:34:36;26.30;99.90
12602;DHT22;30282;16.436;99.370;2023-11-21T12:37:05;26.30;99.90
12602;DHT22;30282;16.436;99.370;2023-11-21T12:39:34;26.20;99.90
12602;DHT22;30282;16.436;99.370;2023-11-21T12:42:04;26.20;99.90
12602;DHT22;30282;16.436;99.370;2023-11-21T12:44:34;26.30;99.90
12602;DHT22;30282;16.436;99.370;2023-11-21T12:47:04;26.30;99.90
12602;DHT22;30282;16.436;99.370;2023-11-21T12:49:35;26.30;99.90
12602;DHT22;30282;16.436;99.370;2023-11-21T12:52:06;26.30;99.90
12602;DHT22;30282;16.436;99.370;2023-11-21T12:54:35;26.20;99.90
12602;DHT22;30282;16.436;99.370;2023-11-21T12:57:05;26.00;99.90
12602;DHT22;30282;16.436;99.370;2023-11-21T12:59:35;26.00;99.90
12602;DHT22;30282;16.436;99.370;2023-11-21T13:02:06;26.10;99.90
12602;DHT22;30282;16.436;99.370;2023-11-21T13:04:39;26.00;99.90
12602;DHT22;30282;16.436;99.370;2023-11-21T13:07:08;26.00;99.90
12602;DHT22;30282;16.436;99.370;2023-11-21T13:09:41;26.00;99.90
12602;DHT22;30282;16.436;99.370;2023-11-21T13:12:10;26.00;99.90
12602;DHT22;30282;16.436;99.370;2023-11-21T13:14:40;25.90;99.90
12602;DHT22;30282;16.436;99.370;2023-11-21T13:17:10;25.90;99.90
12602;DHT22;30282;16.436;99.370;2023-11-21T13:19:41;25.80;99.90
12602;DHT22;30282;16.436;99.370;2023-11-21T13:22:10;25.80;99.90
12602;DHT22;30282;16.436;99.370;2023-11-21T13:24:39;25.70;99.90
12602;DHT22;30282;16.436;99.370;2023-11-21T13:27:08;25.70;99.90
12602;DHT22;30282;16.436;99.370;2023-11-21T13:29:37;25.70;99.90
12602;DHT22;30282;16.436;99.370;2023-11-21T13:32:06;25.70;99.90
12602;DHT22;30282;16.436;99.370;2023-11-21T13:34:40;25.70;99.90
12602;DHT22;30282;16.436;99.370;2023-11-21T13:37:11;25.70;99.90
12602;DHT22;30282;16.436;99.370;2023-11-21T13:39:40;25.70;99.90
12602;DHT22;30282;16.436;99.370;2023-11-21T13:42:12;25.70;99.90
12602;DHT22;30282;16.436;99.370;2023-11-21T13:44:43;25.60;99.90
12602;DHT22;30282;16.436;99.370;2023-11-21T13:47:15;25.50;99.90
12602;DHT22;30282;16.436;99.370;2023-11-21T13:49:45;25.50;99.90
12602;DHT22;30282;16.436;99.370;2023-11-21T13:52:14;25.50;99.90
12602;DHT22;30282;16.436;99.370;2023-11-21T13:54:46;25.50;99.90
12602;DHT22;30282;16.436;99.370;2023-11-21T13:57:16;25.50;99.90
12602;DHT22;30282;16.436;99.370;2023-11-21T13:59:45;25.40;99.90
12602;DHT22;30282;16.436;99.370;2023-11-21T14:02:18;25.30;99.90
12602;DHT22;30282;16.436;99.370;2023-11-21T14:04:53;25.30;99.90
12602;DHT22;30282;16.436;99.370;2023-11-21T14:07:26;25.30;99.90
12602;DHT22;30282;16.436;99.370;2023-11-21T14:10:02;25.30;99.90
12602;DHT22;30282;16.436;99.370;2023-11-21T14:12:33;25.30;99.90
12602;DHT22;30282;16.436;99.370;2023-11-21T14:15:05;25.30;99.90
12602;DHT22;30282;16.436;99.370;2023-11-21T14:17:36;25.30;99.90
12602;DHT22;30282;16.436;99.370;2023-11-21T14:20:10;25.30;99.90
12602;DHT22;30282;16.436;99.370;2023-11-21T14:22:42;25.30;99.90
12602;DHT22;30282;16.436;99.370;2023-11-21T14:25:12;25.20;99.90
12602;DHT22;30282;16.436;99.370;2023-11-21T14:27:43;25.10;99.90
12602;DHT22;30282;16.436;99.370;2023-11-21T14:30:17;24.90;99.90
12602;DHT22;30282;16.436;99.370;2023-11-21T14:32:49;24.90;99.90
12602;DHT22;30282;16.436;99.370;2023-11-21T14:35:20;24.90;99.90
12602;DHT22;30282;16.436;99.370;2023-11-21T14:37:49;24.80;99.90
12602;DHT22;30282;16.436;99.370;2023-11-21T14:40:21;24.80;99.90
12602;DHT22;30282;16.436;99.370;2023-11-21T14:42:51;24.80;99.90
12602;DHT22;30282;16.436;99.370;2023-11-21T14:45:23;24.70;99.90
12602;DHT22;30282;16.436;99.370;2023-11-21T14:47:56;24.50;99.90
12602;DHT22;30282;16.436;99.370;2023-11-21T14:50:35;24.50;99.90
12602;DHT22;30282;16.436;99.370;2023-11-21T14:53:18;24.60;99.90
12602;DHT22;30282;16.436;99.370;2023-11-21T14:56:11;24.60;99.90
12602;DHT22;30282;16.436;99.370;2023-11-21T14:58:52;24.60;99.90
12602;DHT22;30282;16.436;99.370;2023-11-21T15:01:21;24.60;99.90
12602;DHT22;30282;16.436;99.370;2023-11-21T15:04:02;24.60;99.90
12602;DHT22;30282;16.436;99.370;2023-11-21T15:06:34;24.60;99.90
12602;DHT22;30282;16.436;99.370;2023-11-21T15:09:03;24.60;99.90
12602;DHT22;30282;16.436;99.370;2023-11-21T15:11:51;24.50;99.90
12602;DHT22;30282;16.436;99.370;2023-11-21T15:14:25;24.50;99.90
12602;DHT22;30282;16.436;99.370;2023-11-21T15:16:58;24.50;99.90
12602;DHT22;30282;16.436;99.370;2023-11-21T15:19:29;24.50;99.90
12602;DHT22;30282;16.436;99.370;2023-11-21T15:22:00;24.50;99.90
12602;DHT22;30282;16.436;99.370;2023-11-21T15:24:29;24.50;99.90
12602;DHT22;30282;16.436;99.370;2023-11-21T15:26:58;24.40;99.90
12602;DHT22;30282;16.436;99.370;2023-11-21T15:29:27;24.30;99.90
12602;DHT22;30282;16.436;99.370;2023-11-21T15:31:56;23.90;99.90
12602;DHT22;30282;16.436;99.370;2023-11-21T15:34:25;23.60;99.90
12602;DHT22;30282;16.436;99.370;2023-11-21T15:36:56;23.50;99.90
12602;DHT22;30282;16.436;99.370;2023-11-21T15:39:27;23.50;99.90